Terminal Aerodrome Forecast
Issued by NWS

Home | Current Version | Previous Version | Text Only | Print | Product List | Glossary On
Versions: 1 2 3 4 5 6 7 8 9 10 11 12 13 14 15 16 17
000
FTUS41 KRNK 232320
TAFLWB
TAF
KLWB 232320Z 2400/2424 03004KT 5SM -RA BR SCT008 BKN018 OVC024
     FM240300 32005KT P6SM OVC070
      TEMPO 2403/2407 P6SM OVC030
     FM240900 31011G23KT P6SM OVC035
     FM242300 29007KT P6SM SCT040=

USA.gov is the U.S. government's official web portal to all federal, state and local government web resources and services.